VVDN/DAD METAR and TAF weather

Enter ICAO airport designator
Station Type Date Time Source
VVDN METAR 2019/08/25 20:00 UTC NOAA

VVDN 252000Z 00000KT 8000 FEW015 SCT060 27/24 Q1005 NOSIG


Station Type Date Time Source
VVDN Decoded METAR 2019/08/25 20:00 UTC NOAA

Station name not available
Aug 25, 2019 - 04:00 PM EDT / 2019.08.25 2000 UTC
Wind: Calm:0
Visibility: 4 mile(s):0
Sky conditions: partly cloudy
Temperature: 80 F (27 C)
Dew Point: 75 F (24 C)
Relative Humidity: 83%
Pressure (altimeter): 29.68 in. Hg (1005 hPa)
ob: VVDN 252000Z 00000KT 8000 FEW015 SCT060 27/24 Q1005 NOSIG
cycle: 20

Station Type Date Time Source
VVDN TAF 2019/08/25 18:36 UTC NOAA

TAF VVDN 251700Z 2518/2618 21006KT 8000 FEW015 BKN060
TEMPO 2607/2613 TS FEW013 FEW015CB BKN060 PROB40
TEMPO 2608/2610 3500 TSRA SCT013 SCT015CB BKN060

Example: see airport list